createdAt,value
2019-04-26T00:00:42.037Z,68.37
2019-04-26T00:03:10.306Z,69.70
2019-04-26T00:05:37.576Z,69.45
2019-04-26T00:08:04.463Z,69.75
2019-04-26T00:10:31.888Z,71.13
2019-04-26T00:13:14.285Z,72.00
2019-04-26T00:15:47.174Z,72.02
2019-04-26T00:18:15.267Z,71.37
2019-04-26T00:20:42.717Z,70.42
2019-04-26T00:23:10.808Z,70.60
2019-04-26T00:25:37.629Z,70.82
2019-04-26T00:28:05.070Z,70.09
2019-04-26T00:30:32.474Z,70.58
2019-04-26T00:32:59.966Z,70.16
2019-04-26T00:35:27.445Z,69.04
2019-04-26T00:37:54.874Z,70.81
2019-04-26T00:40:22.510Z,71.60
2019-04-26T00:42:49.848Z,71.96
2019-04-26T00:45:17.304Z,71.83
2019-04-26T00:47:44.706Z,72.33
2019-04-26T00:50:13.777Z,72.65
2019-04-26T00:52:40.978Z,71.61
2019-04-26T00:55:08.367Z,72.23
2019-04-26T00:57:35.787Z,70.90
2019-04-26T01:00:03.197Z,69.98
2019-04-26T01:02:30.614Z,69.35
2019-04-26T01:04:58.096Z,68.82
2019-04-26T01:07:25.582Z,69.71
2019-04-26T01:09:53.059Z,69.89
2019-04-26T01:12:20.539Z,70.39
2019-04-26T01:14:47.975Z,71.32
2019-04-26T01:17:16.160Z,71.23
2019-04-26T01:19:42.921Z,71.09
2019-04-26T01:22:10.387Z,70.61
2019-04-26T01:24:37.800Z,70.14
2019-04-26T01:27:05.971Z,70.85
2019-04-26T01:29:33.429Z,70.04
2019-04-26T01:32:03.181Z,70.47
2019-04-26T01:34:30.604Z,70.23
2019-04-26T01:36:58.055Z,69.44
2019-04-26T01:39:25.818Z,70.84
2019-04-26T01:41:52.892Z,70.21
2019-04-26T01:44:38.016Z,69.62
2019-04-26T01:47:06.321Z,69.61
2019-04-26T01:49:34.864Z,71.10
2019-04-26T01:52:03.976Z,70.16
2019-04-26T01:54:31.960Z,69.53
2019-04-26T01:56:58.895Z,69.18
2019-04-26T01:59:27.316Z,69.49
2019-04-26T02:02:08.738Z,69.04
2019-04-26T02:04:36.805Z,69.62
2019-04-26T02:07:04.277Z,68.88
2019-04-26T02:09:32.654Z,68.80
2019-04-26T02:11:59.228Z,68.98
2019-04-26T02:14:26.935Z,69.10
2019-04-26T02:16:54.232Z,68.16
2019-04-26T02:19:21.705Z,68.25
2019-04-26T02:22:04.069Z,68.17
2019-04-26T02:24:32.278Z,68.47
2019-04-26T02:26:59.704Z,67.70
2019-04-26T02:29:27.137Z,67.45
2019-04-26T02:31:54.579Z,67.39
2019-04-26T02:34:22.050Z,67.76
2019-04-26T02:36:57.707Z,68.64
2019-04-26T02:39:18.612Z,69.75
2019-04-26T02:41:46.070Z,68.90
2019-04-26T02:44:13.492Z,70.05
2019-04-26T02:46:44.859Z,70.86
2019-04-26T02:49:17.778Z,72.16
2019-04-26T02:52:00.101Z,71.15
2019-04-26T02:54:44.334Z,73.22
2019-04-26T02:57:11.792Z,74.10
2019-04-26T02:59:40.829Z,73.51
2019-04-26T03:02:06.678Z,74.69
2019-04-26T03:04:34.656Z,74.67
2019-04-26T03:07:03.899Z,74.08
2019-04-26T03:09:31.262Z,74.83
2019-04-26T03:12:01.319Z,74.23
2019-04-26T03:14:36.536Z,75.58
2019-04-26T03:17:05.075Z,74.66
2019-04-26T03:19:40.946Z,75.88
2019-04-26T03:22:24.192Z,77.51
2019-04-26T03:25:12.489Z,77.14
2019-04-26T03:27:58.396Z,77.37
2019-04-26T03:30:54.296Z,76.55
2019-04-26T03:33:38.933Z,76.86
2019-04-26T03:36:12.525Z,75.70
2019-04-26T03:38:58.485Z,76.02
2019-04-26T03:44:37.175Z,76.55
2019-04-26T03:47:04.640Z,77.19
2019-04-26T03:49:39.245Z,76.12
2019-04-26T03:52:09.955Z,77.40
2019-04-26T03:54:39.270Z,77.35
2019-04-26T03:57:13.668Z,77.54
2019-04-26T03:59:45.895Z,79.25
2019-04-26T04:02:24.061Z,79.50
2019-04-26T04:04:53.314Z,79.65
2019-04-26T04:07:35.924Z,79.67
2019-04-26T04:09:49.489Z,78.75
2019-04-26T04:12:17.991Z,79.17
2019-04-26T04:14:47.159Z,80.43
2019-04-26T04:17:18.294Z,80.53
2019-04-26T04:19:52.814Z,81.62
2019-04-26T04:22:20.275Z,80.68
2019-04-26T04:24:50.618Z,80.05
2019-04-26T04:27:22.548Z,80.39
2019-04-26T04:29:55.467Z,80.66
2019-04-26T04:32:34.743Z,80.40
2019-04-26T04:35:06.155Z,80.33
2019-04-26T04:37:29.698Z,80.90
2019-04-26T04:40:16.463Z,81.61
2019-04-26T04:43:15.844Z,81.74
2019-04-26T04:45:55.750Z,82.29
2019-04-26T04:48:45.187Z,82.13
2019-04-26T04:51:15.818Z,82.83
2019-04-26T04:53:46.529Z,82.46
2019-04-26T04:59:24.120Z,82.62
2019-04-26T05:02:20.115Z,82.55
2019-04-26T05:04:59.812Z,82.10
2019-04-26T05:07:30.758Z,82.71
2019-04-26T05:10:15.755Z,83.26
2019-04-26T05:12:54.350Z,84.00
2019-04-26T05:15:28.672Z,83.87
2019-04-26T05:17:56.116Z,83.25
2019-04-26T05:20:27.401Z,82.75
2019-04-26T05:23:16.114Z,81.07
2019-04-26T05:26:11.396Z,79.96
2019-04-26T05:29:01.400Z,79.17
2019-04-26T05:31:30.671Z,79.20
2019-04-26T05:34:07.848Z,81.39
2019-04-26T05:36:54.794Z,80.49
2019-04-26T05:39:26.069Z,79.36
2019-04-26T05:42:05.216Z,79.33
2019-04-26T05:45:01.864Z,78.51
2019-04-26T05:47:29.336Z,80.84
2019-04-26T05:50:05.401Z,80.66
2019-04-26T05:52:41.755Z,81.51
2019-04-26T05:55:33.606Z,82.88
2019-04-26T05:58:05.868Z,83.61
2019-04-26T06:00:36.018Z,84.34
2019-04-26T06:03:07.324Z,84.84
2019-04-26T06:05:49.752Z,84.85
2019-04-26T06:08:33.730Z,84.68
2019-04-26T06:11:05.349Z,84.48
2019-04-26T06:13:38.474Z,84.07
2019-04-26T06:16:28.437Z,86.06
2019-04-26T06:19:13.423Z,85.37
2019-04-26T06:21:45.499Z,86.26
2019-04-26T06:24:25.436Z,84.79
2019-04-26T06:27:07.501Z,85.00
2019-04-26T06:29:27.443Z,84.62
2019-04-26T06:32:04.657Z,83.24
2019-04-26T06:34:39.056Z,84.11
2019-04-26T06:37:09.028Z,83.50
2019-04-26T06:39:46.348Z,84.92
2019-04-26T06:42:21.445Z,85.08
2019-04-26T06:45:05.903Z,85.24
2019-04-26T06:47:45.626Z,84.24
2019-04-26T06:50:15.874Z,84.59
2019-04-26T06:52:59.025Z,83.93
2019-04-26T06:55:28.070Z,84.06
2019-04-26T06:57:59.550Z,84.25
2019-04-26T07:00:25.953Z,84.06
2019-04-26T07:03:13.906Z,82.87
2019-04-26T07:05:45.020Z,83.46
2019-04-26T07:08:40.318Z,83.73
2019-04-26T07:11:09.627Z,83.36
2019-04-26T07:13:54.604Z,84.75
2019-04-26T07:16:40.714Z,83.38
2019-04-26T07:19:08.254Z,83.49
2019-04-26T07:21:39.570Z,84.44
2019-04-26T07:24:11.217Z,84.46
2019-04-26T07:26:41.238Z,84.48
2019-04-26T07:29:37.281Z,85.30
2019-04-26T07:32:11.536Z,84.74
2019-04-26T07:34:49.117Z,84.66
2019-04-26T07:37:28.379Z,84.97
2019-04-26T07:40:27.268Z,85.52
2019-04-26T07:43:13.860Z,86.00
2019-04-26T07:45:52.076Z,84.86
2019-04-26T07:48:21.321Z,85.33
2019-04-26T07:51:00.760Z,85.59
2019-04-26T07:53:28.795Z,85.05
2019-04-26T07:56:09.331Z,85.44
2019-04-26T07:58:45.163Z,85.88
2019-04-26T08:01:25.663Z,85.08
2019-04-26T08:03:56.812Z,85.28
2019-04-26T08:06:39.994Z,85.91
2019-04-26T08:09:07.557Z,86.00
2019-04-26T08:11:37.515Z,84.89
2019-04-26T08:14:14.901Z,83.87
2019-04-26T08:16:47.481Z,84.57
2019-04-26T08:19:14.922Z,84.64
2019-04-26T08:21:47.345Z,83.68
2019-04-26T08:24:10.324Z,84.55
2019-04-26T08:26:38.031Z,83.67
2019-04-26T08:29:06.570Z,83.85
2019-04-26T08:31:32.924Z,83.44
2019-04-26T08:34:00.394Z,83.04
2019-04-26T08:36:28.700Z,82.77
2019-04-26T08:38:56.770Z,82.85
2019-04-26T08:41:24.259Z,82.27
2019-04-26T08:43:55.799Z,81.88
2019-04-26T08:46:23.641Z,81.77
2019-04-26T08:49:06.396Z,81.72
2019-04-26T08:51:33.869Z,81.38
2019-04-26T08:54:01.422Z,82.25
2019-04-26T08:56:30.640Z,82.04
2019-04-26T08:58:58.909Z,82.26
2019-04-26T09:01:26.379Z,82.32
2019-04-26T09:03:57.744Z,82.64
2019-04-26T09:06:27.719Z,81.65
2019-04-26T09:08:55.185Z,81.83
2019-04-26T09:11:26.466Z,82.15
2019-04-26T09:13:50.129Z,81.61
2019-04-26T09:16:17.593Z,81.72
2019-04-26T09:18:52.421Z,80.95
2019-04-26T09:21:13.289Z,80.60
2019-04-26T09:23:50.862Z,80.36
2019-04-26T09:26:18.682Z,79.57
2019-04-26T09:28:52.879Z,79.95
2019-04-26T09:31:24.644Z,79.39
2019-04-26T09:33:52.122Z,80.36
2019-04-26T09:36:19.588Z,81.12
2019-04-26T09:38:47.053Z,81.15
2019-04-26T09:41:14.468Z,80.68
2019-04-26T09:43:42.230Z,80.70
2019-04-26T09:46:15.296Z,80.64
2019-04-26T09:48:43.677Z,81.73
2019-04-26T09:51:11.176Z,80.74
2019-04-26T09:53:39.540Z,80.19
2019-04-26T09:56:06.104Z,80.48
2019-04-26T09:58:33.570Z,80.28
2019-04-26T10:01:01.000Z,79.23
2019-04-26T10:03:28.444Z,79.15
2019-04-26T10:05:57.050Z,79.71
2019-04-26T10:08:23.418Z,78.87
2019-04-26T10:10:51.724Z,79.20
2019-04-26T10:13:21.869Z,78.81
2019-04-26T10:15:53.562Z,79.38
2019-04-26T10:18:24.531Z,78.96
2019-04-26T10:20:48.527Z,79.03
2019-04-26T10:23:16.491Z,79.50
2019-04-26T10:25:47.449Z,78.26
2019-04-26T10:28:11.822Z,78.92
2019-04-26T10:30:42.361Z,78.92
2019-04-26T10:33:06.503Z,79.16
2019-04-26T10:35:33.988Z,78.77
2019-04-26T10:38:01.459Z,77.63
2019-04-26T10:40:35.315Z,78.57
2019-04-26T10:42:56.429Z,77.82
2019-04-26T10:45:23.931Z,77.99
2019-04-26T10:47:51.371Z,78.61
2019-04-26T10:50:18.859Z,78.14
2019-04-26T10:52:54.089Z,77.71
2019-04-26T10:55:34.578Z,78.11
2019-04-26T10:58:02.856Z,77.99
2019-04-26T11:00:31.227Z,77.87
2019-04-26T11:03:00.043Z,77.43
2019-04-26T11:05:26.118Z,77.75
2019-04-26T11:07:54.257Z,77.31
2019-04-26T11:10:24.310Z,77.45
2019-04-26T11:12:49.277Z,77.25
2019-04-26T11:15:17.666Z,76.92
2019-04-26T11:17:46.057Z,76.59
2019-04-26T11:20:12.608Z,76.63
2019-04-26T11:22:40.052Z,76.26
2019-04-26T11:25:07.567Z,76.86
2019-04-26T11:27:34.994Z,76.27
2019-04-26T11:30:11.626Z,76.25
2019-04-26T11:32:33.111Z,75.41
2019-04-26T11:34:58.758Z,74.17
2019-04-26T11:37:24.893Z,74.87
2019-04-26T11:39:52.335Z,74.48
2019-04-26T11:42:20.084Z,74.58
2019-04-26T11:44:48.136Z,73.29
2019-04-26T11:47:15.584Z,74.40
2019-04-26T11:49:43.058Z,72.16
2019-04-26T11:52:10.473Z,72.88
2019-04-26T11:54:37.941Z,73.45
2019-04-26T11:57:08.182Z,74.13
2019-04-26T11:59:32.981Z,73.82
2019-04-26T12:02:00.470Z,74.18
2019-04-26T12:04:29.408Z,72.22
2019-04-26T12:07:13.575Z,71.79
2019-04-26T12:09:41.603Z,71.81
2019-04-26T12:12:12.547Z,71.95
2019-04-26T12:14:36.520Z,72.31
2019-04-26T12:17:03.996Z,72.04
2019-04-26T12:19:31.493Z,71.78
2019-04-26T12:21:58.947Z,71.81
2019-04-26T12:24:29.678Z,71.65
2019-04-26T12:26:56.001Z,71.49
2019-04-26T12:29:22.332Z,72.05
2019-04-26T12:31:49.758Z,70.75
2019-04-26T12:34:17.861Z,69.50
2019-04-26T12:36:44.790Z,69.42
2019-04-26T12:39:12.211Z,69.58
2019-04-26T12:41:40.866Z,68.96
2019-04-26T12:44:07.180Z,67.87
2019-04-26T12:46:44.580Z,68.11
2019-04-26T12:49:12.103Z,67.21
2019-04-26T12:51:42.776Z,66.37
2019-04-26T12:54:08.233Z,66.84
2019-04-26T12:56:34.730Z,66.92
2019-04-26T12:59:02.165Z,67.19
2019-04-26T13:01:29.632Z,64.74
2019-04-26T13:04:03.602Z,65.23
2019-04-26T13:06:31.936Z,65.57
2019-04-26T13:08:57.745Z,66.03
2019-04-26T13:11:48.793Z,65.78
2019-04-26T13:14:07.604Z,65.70
2019-04-26T13:16:36.851Z,65.80
2019-04-26T13:19:04.267Z,65.60
2019-04-26T13:21:33.077Z,65.09
2019-04-26T13:24:00.292Z,64.13
2019-04-26T13:26:30.316Z,64.87
2019-04-26T13:28:57.254Z,64.99
2019-04-26T13:31:22.443Z,65.12
2019-04-26T13:33:50.345Z,65.39
2019-04-26T13:36:17.836Z,64.11
2019-04-26T13:38:45.484Z,63.69
2019-04-26T13:41:13.890Z,63.49
2019-04-26T13:43:41.422Z,63.47
2019-04-26T13:48:50.557Z,64.41
2019-04-26T13:51:18.046Z,63.83
2019-04-26T13:53:45.509Z,64.06
2019-04-26T13:56:13.014Z,63.80
2019-04-26T13:58:40.561Z,63.72
2019-04-26T14:01:08.004Z,63.10
2019-04-26T14:03:35.959Z,63.05
2019-04-26T14:06:03.425Z,62.97
2019-04-26T14:08:31.584Z,61.21
2019-04-26T14:10:59.053Z,61.51
2019-04-26T14:13:26.509Z,61.23
2019-04-26T14:15:53.964Z,61.46
2019-04-26T14:18:21.409Z,61.14
2019-04-26T14:20:48.995Z,61.54
2019-04-26T14:23:21.981Z,60.84
2019-04-26T14:26:07.007Z,59.63
2019-04-26T14:28:33.718Z,59.88
2019-04-26T14:31:01.172Z,58.60
2019-04-26T14:33:30.890Z,60.40
2019-04-26T14:35:56.118Z,59.07
2019-04-26T14:38:28.099Z,60.27
2019-04-26T14:41:03.297Z,57.93
2019-04-26T14:43:22.344Z,58.60
2019-04-26T14:45:55.679Z,58.68
2019-04-26T14:48:20.623Z,58.33
2019-04-26T14:50:41.411Z,58.65
2019-04-26T14:53:08.943Z,58.78
2019-04-26T14:55:36.967Z,58.83
2019-04-26T14:58:04.482Z,58.24
2019-04-26T15:00:33.846Z,53.26
2019-04-26T15:03:03.316Z,54.50
2019-04-26T15:05:33.411Z,54.79
2019-04-26T15:08:03.892Z,55.32
2019-04-26T15:10:43.828Z,54.46
2019-04-26T15:13:14.318Z,54.44
2019-04-26T15:15:32.056Z,53.39
2019-04-26T15:17:59.421Z,53.72
2019-04-26T15:20:24.333Z,53.91
2019-04-26T15:22:50.879Z,54.72
2019-04-26T15:25:18.331Z,53.16
2019-04-26T15:27:45.801Z,54.31
2019-04-26T15:30:13.381Z,54.21
2019-04-26T15:32:42.588Z,52.57
2019-04-26T15:35:08.333Z,53.94
2019-04-26T15:37:35.796Z,52.24
2019-04-26T15:40:09.798Z,53.49
2019-04-26T15:42:39.622Z,53.93
2019-04-26T15:45:07.378Z,53.12
2019-04-26T15:47:53.531Z,53.73
2019-04-26T15:50:23.483Z,54.68
2019-04-26T15:52:52.452Z,53.79
2019-04-26T15:55:18.452Z,53.78
2019-04-26T15:57:45.861Z,52.79
2019-04-26T16:00:13.306Z,53.10
2019-04-26T16:02:42.650Z,52.79
2019-04-26T16:05:08.304Z,51.06
2019-04-26T16:07:35.770Z,52.79
2019-04-26T16:10:04.957Z,52.00
2019-04-26T16:12:32.453Z,51.48
2019-04-26T16:14:59.863Z,52.18
2019-04-26T16:17:27.357Z,51.77
2019-04-26T16:19:56.201Z,51.20
2019-04-26T16:22:25.874Z,50.31
2019-04-26T16:24:51.167Z,49.93
2019-04-26T16:27:17.261Z,50.46
2019-04-26T16:29:59.576Z,50.75
2019-04-26T16:32:37.185Z,49.50
2019-04-26T16:35:04.780Z,50.68
2019-04-26T16:37:33.095Z,50.99
2019-04-26T16:39:59.804Z,49.29
2019-04-26T16:42:27.234Z,49.74
2019-04-26T16:44:55.208Z,49.72
2019-04-26T16:47:23.397Z,50.41
2019-04-26T16:49:49.650Z,50.54
2019-04-26T16:52:17.298Z,50.60
2019-04-26T16:54:44.925Z,50.99
2019-04-26T16:57:12.601Z,50.69
2019-04-26T16:59:47.515Z,51.35
2019-04-26T17:02:07.449Z,53.32
2019-04-26T17:04:36.216Z,53.51
2019-04-26T17:07:04.963Z,51.84
2019-04-26T17:09:53.879Z,54.93
2019-04-26T17:11:57.468Z,55.00
2019-04-26T17:14:25.248Z,53.54
2019-04-26T17:16:53.247Z,53.34
2019-04-26T17:19:20.216Z,55.61
2019-04-26T17:21:47.712Z,54.32
2019-04-26T17:24:18.140Z,54.05
2019-04-26T17:27:00.028Z,53.86
2019-04-26T17:29:27.516Z,54.50
2019-04-26T17:31:55.340Z,54.21
2019-04-26T17:34:28.868Z,55.01
2019-04-26T17:36:51.853Z,54.61
2019-04-26T17:39:18.480Z,57.51
2019-04-26T17:41:50.754Z,56.68
2019-04-26T17:44:13.393Z,57.15
2019-04-26T17:46:40.191Z,56.80
2019-04-26T17:49:07.641Z,57.19
2019-04-26T17:51:41.739Z,56.30
2019-04-26T17:54:21.122Z,57.36
2019-04-26T17:56:31.447Z,56.11
2019-04-26T17:58:57.737Z,55.29
2019-04-26T18:01:41.852Z,55.42
2019-04-26T18:03:55.726Z,55.28
2019-04-26T18:06:29.568Z,56.48
2019-04-26T18:08:52.767Z,56.60
2019-04-26T18:11:19.779Z,56.58
2019-04-26T18:13:43.052Z,57.00
2019-04-26T18:16:11.444Z,57.27
2019-04-26T18:18:50.068Z,57.69
2019-04-26T18:21:20.355Z,58.66
2019-04-26T18:23:48.665Z,58.22
2019-04-26T18:26:17.329Z,57.88
2019-04-26T18:28:46.150Z,57.81
2019-04-26T18:31:08.480Z,58.52
2019-04-26T18:33:35.965Z,60.16
2019-04-26T18:36:04.466Z,59.97
2019-04-26T18:38:31.805Z,58.38
2019-04-26T18:41:01.279Z,58.23
2019-04-26T18:43:26.785Z,59.96
2019-04-26T18:45:54.231Z,58.65
2019-04-26T18:48:23.505Z,59.36
2019-04-26T18:50:49.094Z,58.81
2019-04-26T18:53:36.560Z,59.00
2019-04-26T18:55:59.308Z,58.18
2019-04-26T18:58:30.327Z,58.65
2019-04-26T19:00:57.355Z,59.29
2019-04-26T19:03:24.681Z,58.80
2019-04-26T19:05:50.172Z,59.24
2019-04-26T19:08:20.826Z,58.61
2019-04-26T19:10:57.959Z,58.25
2019-04-26T19:13:18.877Z,59.15
2019-04-26T19:15:51.902Z,59.74
2019-04-26T19:18:21.940Z,58.47
2019-04-26T19:20:47.598Z,58.76
2019-04-26T19:23:15.062Z,58.31
2019-04-26T19:25:42.542Z,58.02
2019-04-26T19:28:09.958Z,58.25
2019-04-26T19:30:40.123Z,57.94
2019-04-26T19:33:04.873Z,57.73
2019-04-26T19:35:32.880Z,58.08
2019-04-26T19:38:00.770Z,58.12
2019-04-26T19:40:28.210Z,58.43
2019-04-26T19:42:57.584Z,59.24
2019-04-26T19:45:26.543Z,59.30
2019-04-26T19:48:18.905Z,59.96
2019-04-26T19:50:48.994Z,60.19
2019-04-26T19:53:16.522Z,60.36
2019-04-26T19:55:47.436Z,60.06
2019-04-26T19:58:20.067Z,60.54
2019-04-26T20:00:43.516Z,60.66
2019-04-26T20:03:13.398Z,60.33
2019-04-26T20:05:40.431Z,60.25
2019-04-26T20:08:05.985Z,60.51
2019-04-26T20:10:34.587Z,60.57
2019-04-26T20:12:59.082Z,60.10
2019-04-26T20:15:28.647Z,60.46
2019-04-26T20:17:59.794Z,60.50
2019-04-26T20:20:23.747Z,60.93
2019-04-26T20:22:51.381Z,61.31
2019-04-26T20:25:16.876Z,62.62
2019-04-26T20:27:44.296Z,61.52
2019-04-26T20:30:12.571Z,61.72
2019-04-26T20:32:44.074Z,61.29
2019-04-26T20:35:13.213Z,62.02
2019-04-26T20:37:41.546Z,61.80
2019-04-26T20:40:18.491Z,62.15
2019-04-26T20:42:34.850Z,61.79
2019-04-26T20:45:04.469Z,62.09
2019-04-26T20:47:29.781Z,61.99
2019-04-26T20:50:01.271Z,61.44
2019-04-26T20:52:25.001Z,61.98
2019-04-26T20:54:54.076Z,61.72
2019-04-26T20:57:19.569Z,61.37
2019-04-26T20:59:47.012Z,61.26
2019-04-26T21:02:16.262Z,61.36
2019-04-26T21:04:44.548Z,61.10
2019-04-26T21:07:11.341Z,60.95
2019-04-26T21:09:40.829Z,60.94
2019-04-26T21:12:07.946Z,61.16
2019-04-26T21:14:32.155Z,61.06
2019-04-26T21:16:59.694Z,60.95
2019-04-26T21:19:27.101Z,61.50
2019-04-26T21:21:54.519Z,61.49
2019-04-26T21:24:23.579Z,61.92
2019-04-26T21:26:51.350Z,62.19
2019-04-26T21:29:20.560Z,62.25
2019-04-26T21:31:47.136Z,62.04
2019-04-26T21:34:24.751Z,62.04
2019-04-26T21:37:03.980Z,62.16
2019-04-26T21:39:33.841Z,62.37
2019-04-26T21:42:00.201Z,61.95
2019-04-26T21:44:27.672Z,62.35
2019-04-26T21:46:58.822Z,62.46
2019-04-26T21:49:24.358Z,62.22
2019-04-26T21:51:52.206Z,62.16
2019-04-26T21:54:19.411Z,62.83
2019-04-26T21:56:48.531Z,62.91
2019-04-26T21:59:13.852Z,63.28
2019-04-26T22:01:40.760Z,63.16
2019-04-26T22:04:08.206Z,63.26
2019-04-26T22:06:35.610Z,62.97
2019-04-26T22:09:08.407Z,63.19
2019-04-26T22:11:35.852Z,62.97
2019-04-26T22:14:03.339Z,62.71
2019-04-26T22:16:35.946Z,62.91
2019-04-26T22:19:15.011Z,63.23
2019-04-26T22:21:44.307Z,64.20
2019-04-26T22:24:17.494Z,64.63
2019-04-26T22:26:48.030Z,65.40
2019-04-26T22:29:16.585Z,65.81
2019-04-26T22:31:41.402Z,67.67
2019-04-26T22:34:08.840Z,67.78
2019-04-26T22:36:35.711Z,67.00
2019-04-26T22:39:03.250Z,66.79
2019-04-26T22:41:29.811Z,66.73
2019-04-26T22:43:58.187Z,67.02
2019-04-26T22:46:44.450Z,66.59
2019-04-26T22:49:01.388Z,66.07
2019-04-26T22:51:28.577Z,66.02
2019-04-26T22:53:53.420Z,65.81
2019-04-26T22:56:23.226Z,65.66
2019-04-26T22:58:49.628Z,66.01
2019-04-26T23:01:17.098Z,65.26
2019-04-26T23:03:46.455Z,65.20
2019-04-26T23:06:12.945Z,66.17
2019-04-26T23:08:39.442Z,65.98
2019-04-26T23:11:09.253Z,64.96
2019-04-26T23:13:44.628Z,65.99
2019-04-26T23:16:14.262Z,66.11
2019-04-26T23:19:00.886Z,66.00
2019-04-26T23:21:29.114Z,65.69
2019-04-26T23:23:56.518Z,65.86
2019-04-26T23:26:23.995Z,65.62
2019-04-26T23:28:51.402Z,65.47
2019-04-26T23:31:18.837Z,65.37
2019-04-26T23:33:46.285Z,65.41
2019-04-26T23:36:13.751Z,65.75
2019-04-26T23:38:41.174Z,65.62
2019-04-26T23:41:08.647Z,65.46
2019-04-26T23:43:36.137Z,65.33
2019-04-26T23:46:03.587Z,65.23
2019-04-26T23:48:31.044Z,65.32
2019-04-26T23:50:59.887Z,64.93
2019-04-26T23:53:25.923Z,64.77
2019-04-26T23:55:53.374Z,64.92
2019-04-26T23:58:20.822Z,64.96
